createdAt,value
2022-08-16T00:01:07.484Z,99356.15
2022-08-16T00:03:41.042Z,99361.86
2022-08-16T00:06:15.567Z,99363.98
2022-08-16T00:08:48.028Z,99367.28
2022-08-16T00:11:22.574Z,99363.03
2022-08-16T00:13:56.118Z,99370.09
2022-08-16T00:17:06.472Z,99374.98
2022-08-16T00:19:07.265Z,99378.44
2022-08-16T00:21:40.310Z,99380.30
2022-08-16T00:24:13.648Z,99385.34
2022-08-16T00:26:47.900Z,99388.45
2022-08-16T00:29:22.505Z,99388.45
2022-08-16T00:31:59.318Z,99384.93
2022-08-16T00:34:44.028Z,99385.33
2022-08-16T00:37:03.784Z,99390.70
2022-08-16T00:39:36.974Z,99411.39
2022-08-16T00:42:11.029Z,99397.89
2022-08-16T00:44:47.305Z,99416.27
2022-08-16T00:47:21.838Z,99413.73
2022-08-16T00:49:56.302Z,99403.47
2022-08-16T00:52:30.869Z,99394.62
2022-08-16T00:55:04.550Z,99394.62
2022-08-16T00:57:58.808Z,99405.64
2022-08-16T01:00:20.145Z,99400.34
2022-08-16T01:02:49.223Z,99410.61
2022-08-16T01:05:23.848Z,99409.47
2022-08-16T01:07:58.628Z,99419.08
2022-08-16T01:10:33.658Z,99425.19
2022-08-16T01:13:15.079Z,99423.85
2022-08-16T01:16:02.952Z,99418.98
2022-08-16T01:18:49.834Z,99430.73
2022-08-16T01:21:48.510Z,99435.08
2022-08-16T01:24:53.525Z,99440.67
2022-08-16T01:27:22.501Z,99441.48
2022-08-16T01:30:19.737Z,99440.98
2022-08-16T01:33:01.923Z,99437.37
2022-08-16T01:35:35.107Z,99425.12
2022-08-16T01:38:29.183Z,99432.38
2022-08-16T01:41:09.641Z,99426.16
2022-08-16T01:43:44.235Z,99411.96
2022-08-16T01:46:39.547Z,99425.91
2022-08-16T01:49:45.392Z,99413.59
2022-08-16T01:52:30.258Z,99407.47
2022-08-16T01:55:01.446Z,99418.75
2022-08-16T01:57:35.547Z,99416.84
2022-08-16T02:00:19.166Z,99408.00
2022-08-16T02:02:52.490Z,99411.62
2022-08-16T02:05:23.683Z,99411.06
2022-08-16T02:07:55.974Z,99400.11
2022-08-16T02:10:28.816Z,99401.16
2022-08-16T02:13:02.331Z,99388.36
2022-08-16T02:15:40.161Z,99386.58
2022-08-16T02:18:12.421Z,99389.05
2022-08-16T02:20:49.178Z,99384.37
2022-08-16T02:23:22.414Z,99389.97
2022-08-16T02:25:54.944Z,99396.12
2022-08-16T02:28:28.798Z,99388.12
2022-08-16T02:31:06.499Z,99392.88
2022-08-16T02:33:43.876Z,99388.73
2022-08-16T02:36:47.147Z,99380.77
2022-08-16T02:38:50.697Z,99379.05
2022-08-16T02:41:23.694Z,99378.76
2022-08-16T02:43:58.668Z,99377.83
2022-08-16T02:46:33.681Z,99371.72
2022-08-16T02:49:08.440Z,99372.47
2022-08-16T02:51:41.920Z,99364.86
2022-08-16T02:54:16.812Z,99365.09
2022-08-16T02:56:51.030Z,99372.78
2022-08-16T02:59:26.575Z,99371.23
2022-08-16T03:02:01.037Z,99378.07
2022-08-16T03:04:50.551Z,99372.45
2022-08-16T03:07:10.883Z,99364.72
2022-08-16T03:09:45.664Z,99362.18
2022-08-16T03:12:30.224Z,99361.25
2022-08-16T03:14:56.514Z,99368.09
2022-08-16T03:17:32.317Z,99360.63
2022-08-16T03:20:06.326Z,99357.27
2022-08-16T03:22:40.574Z,99362.80
2022-08-16T03:25:17.223Z,99360.03
2022-08-16T03:27:54.439Z,99365.85
2022-08-16T03:30:50.407Z,99361.08
2022-08-16T03:33:23.504Z,99363.55
2022-08-16T03:36:29.912Z,99366.30
2022-08-16T03:38:36.878Z,99364.17
2022-08-16T03:41:17.196Z,99373.28
2022-08-16T03:43:51.034Z,99372.75
2022-08-16T03:46:45.065Z,99377.20
2022-08-16T03:48:57.598Z,99378.05
2022-08-16T03:51:30.377Z,99377.20
2022-08-16T03:54:12.566Z,99379.95
2022-08-16T03:56:57.842Z,99371.90
2022-08-16T03:59:17.813Z,99375.52
2022-08-16T04:01:53.745Z,99382.49
2022-08-16T04:04:33.550Z,99378.98
2022-08-16T04:07:00.833Z,99369.38
2022-08-16T04:09:38.293Z,99378.59
2022-08-16T04:12:52.181Z,99376.46
2022-08-16T04:14:48.243Z,99375.15
2022-08-16T04:17:21.159Z,99371.93
2022-08-16T04:19:58.509Z,99371.48
2022-08-16T04:22:29.864Z,99369.53
2022-08-16T04:25:03.557Z,99369.94
2022-08-16T04:27:55.697Z,99367.34
2022-08-16T04:30:32.334Z,99364.34
2022-08-16T04:32:53.486Z,99363.10
2022-08-16T04:35:34.017Z,99363.59
2022-08-16T04:38:11.002Z,99370.51
2022-08-16T04:40:39.479Z,99368.20
2022-08-16T04:43:12.422Z,99368.95
2022-08-16T04:45:47.637Z,99358.95
2022-08-16T04:48:32.399Z,99365.91
2022-08-16T04:51:00.467Z,99371.48
2022-08-16T04:53:34.696Z,99374.86
2022-08-16T04:56:11.578Z,99370.45
2022-08-16T04:58:45.702Z,99376.02
2022-08-16T05:01:17.513Z,99389.06
2022-08-16T05:04:00.351Z,99385.94
2022-08-16T05:06:42.032Z,99395.59
2022-08-16T05:09:00.504Z,99392.47
2022-08-16T05:11:33.525Z,99393.28
2022-08-16T05:14:07.661Z,99393.91
2022-08-16T05:19:26.252Z,99385.20
2022-08-16T05:22:18.000Z,99390.26
2022-08-16T05:24:46.509Z,99395.38
2022-08-16T05:27:19.019Z,99410.42
2022-08-16T05:30:00.678Z,99410.42
2022-08-16T05:32:32.817Z,99414.05
2022-08-16T05:35:02.363Z,99413.48
2022-08-16T05:37:39.804Z,99413.81
2022-08-16T05:40:36.099Z,99419.41
2022-08-16T05:43:11.969Z,99413.38
2022-08-16T05:45:45.585Z,99421.61
2022-08-16T05:48:20.852Z,99419.64
2022-08-16T05:50:56.812Z,99437.23
2022-08-16T05:53:29.877Z,99432.64
2022-08-16T05:56:12.040Z,99428.91
2022-08-16T05:58:47.804Z,99425.66
2022-08-16T06:01:20.382Z,99422.39
2022-08-16T06:03:57.059Z,99421.05
2022-08-16T06:06:33.060Z,99420.54
2022-08-16T06:09:06.843Z,99418.64
2022-08-16T06:11:43.188Z,99421.34
2022-08-16T06:14:16.706Z,99421.34
2022-08-16T06:16:50.627Z,99423.89
2022-08-16T06:19:24.706Z,99428.97
2022-08-16T06:22:00.354Z,99414.12
2022-08-16T06:24:54.244Z,99414.12
2022-08-16T06:27:10.465Z,99416.56
2022-08-16T06:29:49.955Z,99421.85
2022-08-16T06:32:27.121Z,99427.70
2022-08-16T06:35:02.053Z,99427.70
2022-08-16T06:37:37.183Z,99430.66
2022-08-16T06:40:12.904Z,99419.44
2022-08-16T06:42:53.950Z,99430.48
2022-08-16T06:45:43.489Z,99459.88
2022-08-16T06:48:18.929Z,99465.48
2022-08-16T06:50:52.367Z,99485.63
2022-08-16T06:53:25.073Z,99489.89
2022-08-16T06:56:04.148Z,99500.22
2022-08-16T06:58:40.153Z,99518.72
2022-08-16T07:01:16.061Z,99518.72
2022-08-16T07:03:55.116Z,99516.38
2022-08-16T07:06:26.525Z,99521.59
2022-08-16T07:09:02.195Z,99529.86
2022-08-16T07:11:46.124Z,99527.56
2022-08-16T07:14:24.714Z,99530.33
2022-08-16T07:16:50.093Z,99535.02
2022-08-16T07:19:22.988Z,99544.09
2022-08-16T07:21:59.792Z,99541.84
2022-08-16T07:24:32.898Z,99556.47
2022-08-16T07:27:12.522Z,99553.70
2022-08-16T07:29:45.953Z,99553.70
2022-08-16T07:32:29.093Z,99539.13
2022-08-16T07:34:55.759Z,99551.36
2022-08-16T07:37:28.333Z,99547.44
2022-08-16T07:40:11.111Z,99548.58
2022-08-16T07:42:38.918Z,99548.58
2022-08-16T07:45:13.374Z,99546.90
2022-08-16T07:47:51.171Z,99545.69
2022-08-16T07:50:56.120Z,99545.25
2022-08-16T07:52:57.279Z,99557.23
2022-08-16T07:55:45.432Z,99545.64
2022-08-16T07:58:06.945Z,99562.35
2022-08-16T08:00:41.398Z,99553.67
2022-08-16T08:03:15.473Z,99551.09
2022-08-16T08:05:48.218Z,99554.34
2022-08-16T08:08:49.819Z,99541.44
2022-08-16T08:11:01.940Z,99551.63
2022-08-16T08:13:41.951Z,99540.62
2022-08-16T08:16:18.989Z,99546.58
2022-08-16T08:18:50.231Z,99546.52
2022-08-16T08:21:59.509Z,99542.89
2022-08-16T08:24:01.655Z,99546.75
2022-08-16T08:26:34.685Z,99559.83
2022-08-16T08:29:08.540Z,99557.88
2022-08-16T08:31:42.514Z,99556.73
2022-08-16T08:34:17.895Z,99568.11
2022-08-16T08:36:54.139Z,99564.75
2022-08-16T08:39:36.508Z,99572.25
2022-08-16T08:42:10.749Z,99565.93
2022-08-16T08:44:43.855Z,99565.20
2022-08-16T08:47:19.239Z,99571.22
2022-08-16T08:49:56.036Z,99572.79
2022-08-16T08:52:44.494Z,99575.47
2022-08-16T08:55:09.541Z,99562.55
2022-08-16T08:57:47.699Z,99563.00
2022-08-16T09:00:26.999Z,99564.89
2022-08-16T09:02:59.787Z,99565.78
2022-08-16T09:05:37.263Z,99562.75
2022-08-16T09:08:12.692Z,99566.67
2022-08-16T09:10:56.770Z,99565.78
2022-08-16T09:13:27.743Z,99566.72
2022-08-16T09:16:03.297Z,99574.42
2022-08-16T09:18:36.969Z,99571.51
2022-08-16T09:21:11.480Z,99581.03
2022-08-16T09:23:45.738Z,99584.81
2022-08-16T09:26:45.399Z,99592.06
2022-08-16T09:29:16.162Z,99599.70
2022-08-16T09:31:30.457Z,99601.11
2022-08-16T09:34:04.788Z,99595.45
2022-08-16T09:36:46.211Z,99596.33
2022-08-16T09:39:16.039Z,99602.75
2022-08-16T09:41:53.319Z,99601.77
2022-08-16T09:45:12.161Z,99612.45
2022-08-16T09:47:02.840Z,99605.70
2022-08-16T09:49:37.102Z,99602.16
2022-08-16T09:52:10.587Z,99613.42
2022-08-16T09:54:44.378Z,99618.58
2022-08-16T09:57:18.277Z,99609.19
2022-08-16T09:59:56.214Z,99615.66
2022-08-16T10:02:27.987Z,99610.70
2022-08-16T10:05:00.824Z,99601.05
2022-08-16T10:07:44.734Z,99595.41
2022-08-16T10:10:11.796Z,99598.69
2022-08-16T10:12:55.576Z,99594.93
2022-08-16T10:15:30.158Z,99593.95
2022-08-16T10:18:41.038Z,99589.20
2022-08-16T10:20:42.919Z,99573.87
2022-08-16T10:23:19.221Z,99573.87
2022-08-16T10:27:19.013Z,99576.77
2022-08-16T10:28:30.399Z,99575.14
2022-08-16T10:31:04.356Z,99584.14
2022-08-16T10:33:40.312Z,99584.28
2022-08-16T10:36:12.621Z,99591.77
2022-08-16T10:38:46.818Z,99598.47
2022-08-16T10:41:25.193Z,99597.12
2022-08-16T10:43:55.337Z,99607.82
2022-08-16T10:46:39.322Z,99618.78
2022-08-16T10:49:06.827Z,99628.78
2022-08-16T10:52:00.890Z,99628.30
2022-08-16T10:54:29.567Z,99629.20
2022-08-16T10:56:55.595Z,99629.28
2022-08-16T10:59:44.060Z,99633.38
2022-08-16T11:07:08.305Z,99634.48
2022-08-16T11:09:43.746Z,99638.19
2022-08-16T11:12:15.347Z,99642.02
2022-08-16T11:17:22.412Z,99641.44
2022-08-16T11:20:01.205Z,99633.38
2022-08-16T11:22:47.325Z,99634.03
2022-08-16T11:25:56.371Z,99633.48
2022-08-16T11:27:40.701Z,99640.52
2022-08-16T11:30:19.887Z,99636.27
2022-08-16T11:32:50.122Z,99644.12
2022-08-16T11:38:47.639Z,99640.37
2022-08-16T11:40:52.575Z,99640.61
2022-08-16T11:43:34.557Z,99641.64
2022-08-16T11:46:45.410Z,99643.02
2022-08-16T11:48:48.611Z,99646.89
2022-08-16T11:51:21.955Z,99649.13
2022-08-16T11:53:55.163Z,99650.56
2022-08-16T11:56:39.530Z,99645.80
2022-08-16T11:59:03.726Z,99647.89
2022-08-16T12:01:44.465Z,99653.59
2022-08-16T12:04:11.272Z,99659.19
2022-08-16T12:06:45.595Z,99654.11
2022-08-16T12:09:20.156Z,99661.38
2022-08-16T12:11:54.156Z,99671.25
2022-08-16T12:14:27.600Z,99662.38
2022-08-16T12:17:05.768Z,99674.06
2022-08-16T12:19:39.578Z,99666.54
2022-08-16T12:22:19.729Z,99665.39
2022-08-16T12:24:51.186Z,99666.08
2022-08-16T12:27:22.985Z,99659.52
2022-08-16T12:29:58.725Z,99660.20
2022-08-16T12:32:39.332Z,99657.73
2022-08-16T12:35:05.793Z,99662.15
2022-08-16T12:37:40.014Z,99653.05
2022-08-16T12:40:24.419Z,99653.07
2022-08-16T12:42:52.687Z,99646.27
2022-08-16T12:45:25.875Z,99651.05
2022-08-16T12:48:33.758Z,99646.42
2022-08-16T12:50:51.407Z,99643.19
2022-08-16T12:53:24.045Z,99642.42
2022-08-16T12:55:56.932Z,99643.72
2022-08-16T12:58:50.012Z,99643.66
2022-08-16T13:01:06.146Z,99651.67
2022-08-16T13:03:40.587Z,99651.67
2022-08-16T13:06:20.073Z,99647.66
2022-08-16T13:08:51.679Z,99639.52
2022-08-16T13:11:37.811Z,99648.29
2022-08-16T13:14:19.245Z,99649.08
2022-08-16T13:16:44.990Z,99642.59
2022-08-16T13:19:18.029Z,99649.75
2022-08-16T13:21:54.005Z,99643.52
2022-08-16T13:24:26.391Z,99645.38
2022-08-16T13:26:58.967Z,99642.77
2022-08-16T13:29:39.964Z,99639.20
2022-08-16T13:32:08.330Z,99637.67
2022-08-16T13:34:41.743Z,99646.61
2022-08-16T13:37:14.555Z,99646.38
2022-08-16T13:39:48.983Z,99644.76
2022-08-16T13:42:23.136Z,99650.00
2022-08-16T13:44:56.409Z,99648.66
2022-08-16T13:47:30.465Z,99643.29
2022-08-16T13:50:03.703Z,99636.38
2022-08-16T13:52:40.024Z,99641.69
2022-08-16T13:55:17.573Z,99635.09
2022-08-16T13:58:35.087Z,99628.34
2022-08-16T14:00:23.126Z,99631.10
2022-08-16T14:02:59.208Z,99626.33
2022-08-16T14:05:31.288Z,99626.33
2022-08-16T14:08:05.282Z,99616.34
2022-08-16T14:10:38.211Z,99608.62
2022-08-16T14:13:19.955Z,99609.55
2022-08-16T14:15:47.626Z,99608.00
2022-08-16T14:18:21.064Z,99605.86
2022-08-16T14:20:53.899Z,99606.15
2022-08-16T14:23:26.480Z,99606.15
2022-08-16T14:26:00.014Z,99610.30
2022-08-16T14:28:32.881Z,99613.30
2022-08-16T14:31:07.874Z,99611.63
2022-08-16T14:33:40.737Z,99617.16
2022-08-16T14:36:18.848Z,99621.61
2022-08-16T14:38:49.079Z,99614.45
2022-08-16T14:41:21.756Z,99614.39
2022-08-16T14:43:56.411Z,99618.77
2022-08-16T14:46:29.805Z,99622.01
2022-08-16T14:49:02.619Z,99620.49
2022-08-16T14:51:35.661Z,99625.11
2022-08-16T14:54:11.292Z,99620.78
2022-08-16T14:56:46.929Z,99619.04
2022-08-16T14:59:19.078Z,99619.73
2022-08-16T15:01:58.921Z,99623.12
2022-08-16T15:04:37.816Z,99630.39
2022-08-16T15:07:05.774Z,99630.33
2022-08-16T15:09:43.836Z,99634.42
2022-08-16T15:12:26.905Z,99633.36
2022-08-16T15:14:56.297Z,99634.27
2022-08-16T15:17:33.881Z,99640.59
2022-08-16T15:20:08.794Z,99630.80
2022-08-16T15:22:47.967Z,99636.63
2022-08-16T15:25:35.197Z,99634.47
2022-08-16T15:28:23.591Z,99643.97
2022-08-16T15:30:58.256Z,99650.09
2022-08-16T15:33:22.753Z,99646.55
2022-08-16T15:35:58.515Z,99640.13
2022-08-16T15:38:43.556Z,99636.46
2022-08-16T15:41:05.155Z,99640.12
2022-08-16T15:43:39.799Z,99635.26
2022-08-16T15:46:35.790Z,99641.07
2022-08-16T15:49:09.672Z,99643.64
2022-08-16T15:51:45.446Z,99645.61
2022-08-16T15:54:30.058Z,99646.82
2022-08-16T15:56:56.214Z,99646.10
2022-08-16T15:59:28.776Z,99640.72
2022-08-16T16:02:02.932Z,99646.45
2022-08-16T16:04:35.722Z,99640.08
2022-08-16T16:07:09.988Z,99644.96
2022-08-16T16:09:42.841Z,99647.78
2022-08-16T16:12:50.131Z,99653.09
2022-08-16T16:14:52.404Z,99659.49
2022-08-16T16:17:25.792Z,99665.48
2022-08-16T16:19:59.990Z,99667.61
2022-08-16T16:22:33.934Z,99673.53
2022-08-16T16:25:08.229Z,99672.80
2022-08-16T16:27:42.578Z,99672.58
2022-08-16T16:30:37.579Z,99671.20
2022-08-16T16:32:50.196Z,99676.55
2022-08-16T16:35:25.339Z,99678.16
2022-08-16T16:37:57.932Z,99679.66
2022-08-16T16:40:32.701Z,99679.66
2022-08-16T16:43:06.454Z,99676.90
2022-08-16T16:45:41.136Z,99676.13
2022-08-16T16:48:14.601Z,99679.84
2022-08-16T16:50:48.809Z,99676.64
2022-08-16T16:53:23.170Z,99684.41
2022-08-16T16:55:56.975Z,99690.44
2022-08-16T16:58:53.418Z,99694.19
2022-08-16T17:01:24.046Z,99695.45
2022-08-16T17:03:56.603Z,99696.22
2022-08-16T17:06:29.370Z,99692.81
2022-08-16T17:09:01.939Z,99695.27
2022-08-16T17:11:37.500Z,99695.83
2022-08-16T17:14:17.412Z,99698.70
2022-08-16T17:16:46.891Z,99702.63
2022-08-16T17:19:21.865Z,99697.45
2022-08-16T17:22:05.084Z,99693.65
2022-08-16T17:24:40.111Z,99699.16
2022-08-16T17:27:18.114Z,99695.78
2022-08-16T17:29:51.394Z,99698.97
2022-08-16T17:32:33.781Z,99698.11
2022-08-16T17:35:07.146Z,99694.70
2022-08-16T17:40:47.583Z,99695.66
2022-08-16T17:43:02.426Z,99702.89
2022-08-16T17:45:36.129Z,99705.44
2022-08-16T17:48:08.654Z,99714.42
2022-08-16T17:50:41.969Z,99714.42
2022-08-16T17:53:14.860Z,99718.04
2022-08-16T17:55:50.581Z,99729.28
2022-08-16T17:58:25.046Z,99725.27
2022-08-16T18:01:00.338Z,99721.24
2022-08-16T18:04:07.807Z,99722.70
2022-08-16T18:06:13.534Z,99722.92
2022-08-16T18:08:48.602Z,99726.44
2022-08-16T18:11:25.696Z,99729.41
2022-08-16T18:13:57.516Z,99716.12
2022-08-16T18:16:31.508Z,99720.69
2022-08-16T18:19:05.033Z,99717.11
2022-08-16T18:21:55.705Z,99721.45
2022-08-16T18:24:31.391Z,99729.30
2022-08-16T18:27:26.053Z,99725.16
2022-08-16T18:29:38.048Z,99720.83
2022-08-16T18:32:12.284Z,99721.98
2022-08-16T18:34:45.264Z,99723.75
2022-08-16T18:37:17.927Z,99717.93
2022-08-16T18:39:50.399Z,99715.27
2022-08-16T18:42:22.884Z,99727.50
2022-08-16T18:44:56.410Z,99723.67
2022-08-16T18:47:28.986Z,99711.48
2022-08-16T18:50:02.713Z,99713.61
2022-08-16T18:52:36.422Z,99708.09
2022-08-16T18:55:13.949Z,99708.09
2022-08-16T18:57:44.631Z,99715.94
2022-08-16T19:00:18.173Z,99721.55
2022-08-16T19:02:59.129Z,99721.86
2022-08-16T19:05:29.394Z,99720.82
2022-08-16T19:08:02.567Z,99720.17
2022-08-16T19:10:36.639Z,99715.09
2022-08-16T19:13:14.016Z,99711.05
2022-08-16T19:15:47.950Z,99721.01
2022-08-16T19:18:20.862Z,99702.01
2022-08-16T19:20:53.590Z,99708.47
2022-08-16T19:23:29.416Z,99700.20
2022-08-16T19:26:06.060Z,99693.22
2022-08-16T19:28:50.466Z,99685.98
2022-08-16T19:31:26.138Z,99693.52
2022-08-16T19:33:59.170Z,99693.23
2022-08-16T19:36:36.947Z,99704.05
2022-08-16T19:39:15.924Z,99697.58
2022-08-16T19:41:50.575Z,99700.77
2022-08-16T19:44:24.453Z,99695.59
2022-08-16T19:46:58.999Z,99698.10
2022-08-16T19:49:31.615Z,99688.45
2022-08-16T19:52:25.677Z,99692.92
2022-08-16T19:55:03.462Z,99689.09
2022-08-16T19:57:37.073Z,99684.53
2022-08-16T20:00:15.541Z,99678.71
2022-08-16T20:02:52.538Z,99677.55
2022-08-16T20:05:34.552Z,99684.56
2022-08-16T20:08:08.204Z,99677.33
2022-08-16T20:10:43.374Z,99676.38
2022-08-16T20:13:22.090Z,99680.08
2022-08-16T20:15:54.897Z,99682.72
2022-08-16T20:18:27.464Z,99678.16
2022-08-16T20:21:00.316Z,99678.80
2022-08-16T20:23:34.559Z,99677.86
2022-08-16T20:26:08.602Z,99672.86
2022-08-16T20:28:52.472Z,99669.67
2022-08-16T20:31:17.529Z,99675.52
2022-08-16T20:33:51.563Z,99663.76
2022-08-16T20:36:24.726Z,99658.24
2022-08-16T20:38:59.580Z,99662.80
2022-08-16T20:41:32.597Z,99667.48
2022-08-16T20:44:05.988Z,99668.22
2022-08-16T20:46:40.361Z,99664.73
2022-08-16T20:49:13.154Z,99665.47
2022-08-16T20:51:47.011Z,99670.12
2022-08-16T20:54:21.673Z,99667.70
2022-08-16T20:56:55.403Z,99673.81
2022-08-16T20:59:28.990Z,99671.80
2022-08-16T21:02:02.071Z,99658.96
2022-08-16T21:04:35.870Z,99666.50
2022-08-16T21:07:09.535Z,99669.78
2022-08-16T21:09:42.012Z,99670.64
2022-08-16T21:12:18.001Z,99668.01
2022-08-16T21:14:51.627Z,99666.84
2022-08-16T21:17:25.067Z,99666.92
2022-08-16T21:19:57.613Z,99658.56
2022-08-16T21:22:30.429Z,99655.67
2022-08-16T21:25:02.972Z,99659.08
2022-08-16T21:27:39.464Z,99657.58
2022-08-16T21:30:13.994Z,99657.19
2022-08-16T21:32:48.539Z,99650.30
2022-08-16T21:35:21.139Z,99641.91
2022-08-16T21:38:01.020Z,99647.00
2022-08-16T21:40:31.365Z,99648.48
2022-08-16T21:43:13.754Z,99647.97
2022-08-16T21:45:48.126Z,99651.34
2022-08-16T21:48:34.971Z,99660.23
2022-08-16T21:50:58.750Z,99657.07
2022-08-16T21:53:32.131Z,99660.24
2022-08-16T21:56:06.097Z,99656.53
2022-08-16T21:58:39.132Z,99672.95
2022-08-16T22:01:11.580Z,99663.73
2022-08-16T22:03:44.144Z,99670.72
2022-08-16T22:06:17.058Z,99671.89
2022-08-16T22:08:51.137Z,99667.45
2022-08-16T22:11:25.862Z,99662.05
2022-08-16T22:13:59.488Z,99661.60
2022-08-16T22:16:35.402Z,99663.50
2022-08-16T22:19:08.440Z,99662.33
2022-08-16T22:21:41.099Z,99663.09
2022-08-16T22:24:14.116Z,99659.78
2022-08-16T22:26:47.208Z,99661.60
2022-08-16T22:29:19.690Z,99653.99
2022-08-16T22:31:52.193Z,99651.45
2022-08-16T22:34:26.371Z,99653.55
2022-08-16T22:36:58.919Z,99654.83
2022-08-16T22:39:31.685Z,99658.09
2022-08-16T22:42:09.259Z,99654.38
2022-08-16T22:44:46.342Z,99658.62
2022-08-16T22:47:17.409Z,99661.86
2022-08-16T22:49:50.711Z,99658.48
2022-08-16T22:52:52.741Z,99660.69
2022-08-16T22:54:57.883Z,99659.31
2022-08-16T22:57:30.301Z,99667.05
2022-08-16T23:00:02.967Z,99663.44
2022-08-16T23:02:36.473Z,99663.85
2022-08-16T23:05:10.308Z,99666.95
2022-08-16T23:07:43.052Z,99667.05
2022-08-16T23:10:16.117Z,99668.73
2022-08-16T23:12:51.907Z,99669.80
2022-08-16T23:15:25.034Z,99664.43
2022-08-16T23:17:58.725Z,99663.40
2022-08-16T23:20:31.232Z,99663.44
2022-08-16T23:23:21.247Z,99667.36
2022-08-16T23:25:41.066Z,99666.88
2022-08-16T23:28:13.985Z,99676.38
2022-08-16T23:30:46.376Z,99668.84
2022-08-16T23:33:20.370Z,99658.69
2022-08-16T23:35:56.783Z,99655.52
2022-08-16T23:38:37.474Z,99655.52
2022-08-16T23:41:11.876Z,99658.62
2022-08-16T23:43:45.626Z,99662.23
2022-08-16T23:46:19.661Z,99664.13
2022-08-16T23:49:56.847Z,99657.34
2022-08-16T23:51:30.124Z,99655.86
2022-08-16T23:54:02.682Z,99654.14
2022-08-16T23:56:40.555Z,99654.48
2022-08-16T23:59:11.398Z,99656.89
